createdAt,value
2022-10-06T00:04:03.738Z,47.41
2022-10-06T00:09:25.398Z,47.85
2022-10-06T00:14:47.030Z,47.85
2022-10-06T00:20:10.200Z,47.61
2022-10-06T00:25:32.406Z,47.79
2022-10-06T00:30:56.485Z,47.67
2022-10-06T00:36:18.466Z,47.80
2022-10-06T00:41:40.132Z,47.83
2022-10-06T00:47:03.240Z,47.63
2022-10-06T00:52:28.896Z,47.74
2022-10-06T00:57:52.502Z,47.60
2022-10-06T01:03:37.302Z,47.41
2022-10-06T01:08:58.944Z,47.55
2022-10-06T01:14:22.874Z,47.31
2022-10-06T01:19:56.731Z,47.38
2022-10-06T01:25:19.286Z,47.31
2022-10-06T01:30:46.526Z,47.37
2022-10-06T01:36:08.389Z,47.61
2022-10-06T01:41:33.365Z,47.59
2022-10-06T01:46:55.035Z,47.84
2022-10-06T01:52:16.777Z,47.33
2022-10-06T01:57:42.391Z,47.34
2022-10-06T02:03:04.215Z,47.33
2022-10-06T02:08:26.208Z,47.75
2022-10-06T02:13:48.699Z,47.60
2022-10-06T02:19:10.510Z,47.35
2022-10-06T02:24:32.264Z,47.56
2022-10-06T02:29:53.981Z,47.50
2022-10-06T02:35:15.702Z,47.73
2022-10-06T02:40:37.324Z,47.79
2022-10-06T02:46:07.390Z,47.68
2022-10-06T02:51:30.146Z,47.38
2022-10-06T02:56:51.826Z,47.60
2022-10-06T03:02:13.563Z,47.35
2022-10-06T03:07:35.299Z,47.57
2022-10-06T03:12:57.027Z,47.55
2022-10-06T03:18:18.686Z,47.36
2022-10-06T03:23:40.422Z,47.74
2022-10-06T03:29:02.477Z,47.38
2022-10-06T03:34:24.240Z,47.45
2022-10-06T03:39:46.082Z,47.72
2022-10-06T03:45:08.493Z,47.30
2022-10-06T03:50:30.171Z,47.30
2022-10-06T03:56:11.423Z,47.45
2022-10-06T04:01:38.012Z,47.40
2022-10-06T04:06:59.740Z,47.61
2022-10-06T04:12:21.408Z,47.56
2022-10-06T04:17:43.211Z,47.05
2022-10-06T04:23:05.782Z,47.48
2022-10-06T04:28:28.106Z,47.57
2022-10-06T04:33:55.621Z,47.53
2022-10-06T04:39:17.235Z,47.29
2022-10-06T04:44:39.048Z,47.36
2022-10-06T04:50:00.819Z,47.23
2022-10-06T04:55:22.583Z,47.40
2022-10-06T05:00:44.444Z,47.39
2022-10-06T05:06:17.828Z,47.26
2022-10-06T05:11:39.756Z,46.96
2022-10-06T05:17:01.463Z,47.18
2022-10-06T05:22:23.175Z,47.39
2022-10-06T05:27:44.931Z,47.11
2022-10-06T05:33:07.512Z,47.07
2022-10-06T05:38:29.972Z,47.11
2022-10-06T05:43:53.139Z,47.27
2022-10-06T05:49:14.891Z,46.94
2022-10-06T05:54:36.600Z,47.33
2022-10-06T05:59:58.265Z,46.92
2022-10-06T06:05:19.932Z,47.15
2022-10-06T06:10:41.608Z,46.87
2022-10-06T06:16:06.172Z,46.84
2022-10-06T06:21:28.721Z,46.97
2022-10-06T06:26:50.527Z,46.88
2022-10-06T06:32:12.151Z,46.79
2022-10-06T06:37:33.817Z,47.04
2022-10-06T06:42:55.440Z,46.62
2022-10-06T06:48:17.104Z,46.73
2022-10-06T06:53:40.304Z,46.27
2022-10-06T06:59:09.147Z,46.16
2022-10-06T07:04:33.132Z,46.10
2022-10-06T07:09:54.839Z,45.71
2022-10-06T07:15:35.398Z,45.98
2022-10-06T07:21:16.004Z,44.31
2022-10-06T07:26:37.741Z,40.15
2022-10-06T07:31:59.429Z,37.26
2022-10-06T07:37:21.130Z,35.74
2022-10-06T07:42:49.359Z,33.57
2022-10-06T07:48:14.567Z,32.24
2022-10-06T07:53:37.541Z,31.31
2022-10-06T07:58:59.509Z,30.35
2022-10-06T08:04:21.193Z,29.93
2022-10-06T08:09:42.867Z,31.25
2022-10-06T08:15:11.483Z,33.33
2022-10-06T08:20:33.271Z,35.50
2022-10-06T08:25:56.460Z,37.00
2022-10-06T08:31:21.398Z,38.42
2022-10-06T08:36:57.002Z,39.63
2022-10-06T08:42:46.207Z,40.27
2022-10-06T08:48:16.670Z,40.82
2022-10-06T08:53:47.212Z,41.21
2022-10-06T08:59:12.498Z,41.78
2022-10-06T09:04:34.506Z,42.05
2022-10-06T09:10:33.689Z,42.84
2022-10-06T09:15:59.521Z,42.56
2022-10-06T09:21:35.114Z,43.08
2022-10-06T09:26:59.132Z,43.17
2022-10-06T09:32:23.190Z,43.16
2022-10-06T09:38:08.733Z,43.41
2022-10-06T09:43:31.572Z,43.74
2022-10-06T09:49:16.516Z,44.06
2022-10-06T09:54:38.960Z,43.95
2022-10-06T10:00:01.983Z,43.89
2022-10-06T10:05:25.167Z,44.13
2022-10-06T10:10:46.822Z,44.26
2022-10-06T10:16:10.910Z,44.29
2022-10-06T10:21:36.595Z,44.29
2022-10-06T10:27:24.079Z,44.67
2022-10-06T10:32:54.542Z,44.88
2022-10-06T10:38:20.105Z,44.80
2022-10-06T10:43:50.009Z,44.47
2022-10-06T10:49:27.882Z,44.92
2022-10-06T10:54:59.434Z,44.59
2022-10-06T11:00:25.457Z,45.02
2022-10-06T11:06:20.589Z,45.03
2022-10-06T11:11:54.341Z,45.13
2022-10-06T11:17:40.145Z,45.14
2022-10-06T11:23:28.830Z,45.04
2022-10-06T11:29:00.115Z,44.89
2022-10-06T11:34:21.753Z,45.18
2022-10-06T11:40:04.173Z,44.74
2022-10-06T11:46:00.184Z,44.71
2022-10-06T11:51:25.005Z,44.69
2022-10-06T11:56:46.726Z,45.11
2022-10-06T12:02:37.394Z,44.67
2022-10-06T12:07:59.449Z,44.77
2022-10-06T12:14:12.323Z,44.53
2022-10-06T12:19:19.972Z,44.99
2022-10-06T12:24:55.226Z,45.02
2022-10-06T12:30:30.541Z,44.24
2022-10-06T12:36:02.118Z,43.96
2022-10-06T12:41:59.665Z,43.39
2022-10-06T12:47:34.874Z,42.76
2022-10-06T12:53:05.625Z,42.64
2022-10-06T12:58:32.518Z,42.18
2022-10-06T13:03:55.438Z,41.84
2022-10-06T13:09:17.088Z,41.69
2022-10-06T13:14:38.753Z,41.69
2022-10-06T13:20:01.466Z,41.64
2022-10-06T13:25:23.406Z,41.42
2022-10-06T13:30:50.562Z,41.13
2022-10-06T13:36:13.619Z,41.16
2022-10-06T13:41:41.676Z,40.99
2022-10-06T13:47:15.870Z,40.70
2022-10-06T13:52:47.012Z,41.07
2022-10-06T13:58:10.169Z,40.80
2022-10-06T14:09:24.043Z,40.54
2022-10-06T14:14:50.670Z,40.27
2022-10-06T14:20:46.176Z,40.66
2022-10-06T14:26:09.516Z,40.25
2022-10-06T14:31:33.462Z,40.78
2022-10-06T14:36:55.511Z,40.67
2022-10-06T14:42:17.535Z,40.35
2022-10-06T14:47:39.260Z,40.46
2022-10-06T14:53:01.451Z,40.48
2022-10-06T14:58:23.103Z,40.12
2022-10-06T15:03:51.574Z,40.31
2022-10-06T15:09:13.527Z,40.31
2022-10-06T15:14:40.047Z,40.36
2022-10-06T15:20:01.811Z,40.47
2022-10-06T15:25:41.849Z,40.88
2022-10-06T15:31:03.549Z,40.60
2022-10-06T15:36:25.482Z,40.14
2022-10-06T15:41:47.796Z,40.41
2022-10-06T15:47:10.185Z,40.12
2022-10-06T15:52:33.956Z,40.02
2022-10-06T15:57:55.901Z,40.19
2022-10-06T16:03:38.728Z,39.72
2022-10-06T16:09:02.669Z,40.05
2022-10-06T16:14:25.221Z,40.52
2022-10-06T16:19:47.329Z,39.96
2022-10-06T16:25:09.188Z,40.30
2022-10-06T16:30:30.962Z,40.06
2022-10-06T16:35:57.076Z,40.27
2022-10-06T16:41:19.558Z,40.78
2022-10-06T16:46:41.339Z,40.19
2022-10-06T16:52:03.003Z,39.30
2022-10-06T16:57:25.144Z,39.19
2022-10-06T17:02:46.893Z,39.25
2022-10-06T17:08:08.578Z,39.64
2022-10-06T17:13:30.351Z,39.61
2022-10-06T17:18:55.782Z,40.04
2022-10-06T17:24:18.307Z,39.78
2022-10-06T17:29:40.232Z,39.91
2022-10-06T17:35:02.044Z,40.16
2022-10-06T17:40:23.722Z,40.31
2022-10-06T17:45:46.437Z,40.31
2022-10-06T17:51:08.983Z,40.48
2022-10-06T17:56:35.757Z,40.50
2022-10-06T18:01:59.906Z,41.09
2022-10-06T18:07:22.198Z,40.83
2022-10-06T18:12:44.200Z,41.51
2022-10-06T18:18:06.127Z,41.43
2022-10-06T18:23:28.273Z,41.53
2022-10-06T18:28:50.425Z,41.69
2022-10-06T18:39:54.435Z,42.11
2022-10-06T18:45:39.262Z,42.26
2022-10-06T18:51:01.985Z,42.80
2022-10-06T18:56:29.741Z,42.83
2022-10-06T19:01:51.628Z,42.95
2022-10-06T19:07:13.337Z,42.79
2022-10-06T19:12:34.986Z,42.94
2022-10-06T19:17:56.631Z,42.75
2022-10-06T19:23:18.351Z,42.58
2022-10-06T19:28:40.411Z,42.92
2022-10-06T19:34:04.293Z,42.51
2022-10-06T19:39:28.468Z,42.77
2022-10-06T19:44:50.155Z,42.76
2022-10-06T19:50:12.981Z,42.94
2022-10-06T19:55:34.767Z,42.81
2022-10-06T20:00:56.404Z,42.65
2022-10-06T20:06:18.535Z,43.07
2022-10-06T20:11:43.805Z,43.00
2022-10-06T20:17:06.190Z,42.95
2022-10-06T20:22:28.241Z,42.99
2022-10-06T20:27:50.393Z,43.01
2022-10-06T20:33:12.026Z,42.73
2022-10-06T20:38:52.051Z,42.98
2022-10-06T20:44:13.844Z,42.92
2022-10-06T20:49:35.584Z,43.01
2022-10-06T20:54:57.302Z,43.27
2022-10-06T21:00:19.079Z,43.09
2022-10-06T21:05:48.465Z,43.21
2022-10-06T21:11:14.979Z,43.38
2022-10-06T21:16:37.681Z,43.69
2022-10-06T21:22:00.676Z,43.30
2022-10-06T21:27:22.285Z,43.65
2022-10-06T21:32:44.169Z,43.78
2022-10-06T21:38:07.377Z,43.65
2022-10-06T21:43:29.095Z,43.78
2022-10-06T21:48:55.881Z,43.58
2022-10-06T21:54:18.980Z,43.77
2022-10-06T21:59:40.597Z,43.60
2022-10-06T22:05:02.301Z,43.42
2022-10-06T22:10:23.993Z,43.46
2022-10-06T22:15:45.677Z,43.38
2022-10-06T22:21:27.423Z,43.36
2022-10-06T22:26:49.903Z,43.64
2022-10-06T22:32:11.530Z,43.81
2022-10-06T22:37:33.216Z,43.76
2022-10-06T22:42:54.836Z,43.88
2022-10-06T22:48:16.441Z,43.67
2022-10-06T22:53:38.111Z,43.94
2022-10-06T22:59:00.658Z,43.70
2022-10-06T23:04:22.414Z,43.84
2022-10-06T23:09:44.145Z,43.78
2022-10-06T23:15:06.300Z,43.68
2022-10-06T23:20:27.948Z,43.83
2022-10-06T23:25:49.571Z,44.04
2022-10-06T23:31:11.943Z,43.85
2022-10-06T23:36:33.684Z,44.01
2022-10-06T23:41:55.294Z,43.66
2022-10-06T23:47:17.004Z,43.93
2022-10-06T23:52:38.695Z,44.07
2022-10-06T23:58:00.398Z,43.91
